createdAt,value
2022-10-13T00:00:49.458Z,101429.40
2022-10-13T00:06:10.914Z,101428.40
2022-10-13T00:11:25.027Z,101438.60
2022-10-13T00:16:29.337Z,101427.40
2022-10-13T00:21:32.556Z,101427.20
2022-10-13T00:26:35.548Z,101424.00
2022-10-13T00:31:38.552Z,101427.00
2022-10-13T00:36:41.656Z,101430.40
2022-10-13T00:41:45.581Z,101431.80
2022-10-13T00:46:48.589Z,101433.00
2022-10-13T00:51:51.896Z,101432.40
2022-10-13T00:56:55.756Z,101434.60
2022-10-13T01:02:00.938Z,101426.40
2022-10-13T01:07:05.811Z,101421.20
2022-10-13T01:12:19.368Z,101421.60
2022-10-13T01:17:42.355Z,101420.60
2022-10-13T01:23:37.458Z,101418.00
2022-10-13T01:29:33.314Z,101407.60
2022-10-13T01:35:40.932Z,101404.20
2022-10-13T01:41:10.990Z,101405.00
2022-10-13T01:46:26.439Z,101397.60
2022-10-13T01:51:32.651Z,101402.60
2022-10-13T01:56:35.968Z,101406.20
2022-10-13T02:02:18.860Z,101403.80
2022-10-13T02:07:49.503Z,101397.40
2022-10-13T02:13:01.227Z,101401.20
2022-10-13T02:18:06.140Z,101393.80
2022-10-13T02:23:13.992Z,101397.40
2022-10-13T02:28:18.343Z,101391.40
2022-10-13T02:33:21.672Z,101392.00
2022-10-13T02:38:25.283Z,101391.60
2022-10-13T02:43:28.799Z,101389.00
2022-10-13T02:48:31.905Z,101380.40
2022-10-13T02:53:35.421Z,101375.80
2022-10-13T02:58:38.873Z,101371.20
2022-10-13T03:03:43.788Z,101376.40
2022-10-13T03:08:46.822Z,101378.40
2022-10-13T03:13:49.896Z,101377.20
2022-10-13T03:18:52.924Z,101374.80
2022-10-13T03:23:55.907Z,101377.80
2022-10-13T03:28:59.140Z,101376.40
2022-10-13T03:34:03.349Z,101376.20
2022-10-13T03:39:06.893Z,101372.80
2022-10-13T03:44:13.534Z,101366.20
2022-10-13T03:49:17.612Z,101357.00
2022-10-13T03:54:20.581Z,101355.00
2022-10-13T03:59:23.615Z,101354.80
2022-10-13T04:04:28.841Z,101354.60
2022-10-13T04:09:32.082Z,101357.60
2022-10-13T04:14:35.259Z,101364.20
2022-10-13T04:19:38.213Z,101353.40
2022-10-13T04:24:41.332Z,101355.00
2022-10-13T04:29:44.412Z,101357.80
2022-10-13T04:34:47.478Z,101355.20
2022-10-13T04:39:50.616Z,101359.40
2022-10-13T04:44:53.589Z,101354.60
2022-10-13T04:49:56.618Z,101354.80
2022-10-13T04:54:59.700Z,101348.00
2022-10-13T05:00:07.488Z,101348.60
2022-10-13T05:05:11.029Z,101356.40
2022-10-13T05:10:14.885Z,101360.00
2022-10-13T05:15:18.265Z,101357.60
2022-10-13T05:20:21.296Z,101349.80
2022-10-13T05:25:24.383Z,101355.60
2022-10-13T05:30:27.508Z,101345.40
2022-10-13T05:35:30.909Z,101342.40
2022-10-13T05:40:34.009Z,101335.00
2022-10-13T05:45:37.212Z,101330.00
2022-10-13T05:50:41.571Z,101329.00
2022-10-13T05:55:44.859Z,101329.00
2022-10-13T06:00:49.628Z,101332.40
2022-10-13T06:05:53.278Z,101334.00
2022-10-13T06:10:56.657Z,101338.40
2022-10-13T06:15:59.752Z,101346.20
2022-10-13T06:21:03.290Z,101341.80
2022-10-13T06:26:09.235Z,101341.00
2022-10-13T06:31:12.566Z,101333.20
2022-10-13T06:36:15.851Z,101329.80
2022-10-13T06:41:19.265Z,101321.00
2022-10-13T06:46:22.273Z,101318.20
2022-10-13T06:51:25.913Z,101322.00
2022-10-13T06:56:30.629Z,101314.00
2022-10-13T07:01:36.750Z,101312.20
2022-10-13T07:06:43.710Z,101306.20
2022-10-13T07:11:47.834Z,101310.40
2022-10-13T07:16:50.940Z,101310.00
2022-10-13T07:21:54.147Z,101307.60
2022-10-13T07:26:57.261Z,101306.20
2022-10-13T07:32:00.260Z,101303.60
2022-10-13T07:37:03.406Z,101300.80
2022-10-13T07:42:06.468Z,101299.60
2022-10-13T07:47:09.987Z,101289.80
2022-10-13T07:52:13.093Z,101290.80
2022-10-13T07:57:16.207Z,101286.80
2022-10-13T08:02:21.646Z,101280.60
2022-10-13T08:07:25.183Z,101277.00
2022-10-13T08:12:28.284Z,101275.00
2022-10-13T08:17:31.397Z,101266.20
2022-10-13T08:22:34.605Z,101258.40
2022-10-13T08:27:50.537Z,101261.20
2022-10-13T08:32:54.427Z,101254.80
2022-10-13T08:37:57.532Z,101252.60
2022-10-13T08:43:00.785Z,101259.40
2022-10-13T08:48:12.668Z,101255.20
2022-10-13T08:53:48.947Z,101267.80
2022-10-13T08:58:54.608Z,101259.40
2022-10-13T09:04:18.190Z,101244.60
2022-10-13T09:09:21.404Z,101230.00
2022-10-13T09:14:31.544Z,101226.40
2022-10-13T09:19:39.000Z,101218.40
2022-10-13T09:24:42.391Z,101212.60
2022-10-13T09:29:46.322Z,101212.00
2022-10-13T09:34:51.748Z,101212.00
2022-10-13T09:40:21.827Z,101201.20
2022-10-13T09:45:26.987Z,101206.40
2022-10-13T09:50:33.543Z,101201.80
2022-10-13T09:55:36.765Z,101198.40
2022-10-13T10:00:40.689Z,101189.60
2022-10-13T10:05:53.910Z,101194.80
2022-10-13T10:11:00.840Z,101191.20
2022-10-13T10:16:38.484Z,101188.80
2022-10-13T10:21:56.198Z,101184.20
2022-10-13T10:27:06.841Z,101173.40
2022-10-13T10:32:28.929Z,101165.40
2022-10-13T10:38:22.697Z,101159.20
2022-10-13T10:43:31.994Z,101148.40
2022-10-13T10:48:39.763Z,101150.20
2022-10-13T10:56:39.228Z,101148.20
2022-10-13T11:02:01.193Z,101148.40
2022-10-13T11:07:05.510Z,101148.20
2022-10-13T11:12:22.863Z,101139.80
2022-10-13T11:17:39.067Z,101135.00
2022-10-13T11:22:42.171Z,101131.00
2022-10-13T11:27:45.592Z,101125.40
2022-10-13T11:32:55.851Z,101120.40
2022-10-13T11:38:17.779Z,101112.40
2022-10-13T11:43:36.475Z,101105.40
2022-10-13T11:49:17.033Z,101104.80
2022-10-13T11:54:39.830Z,101105.60
2022-10-13T11:59:48.270Z,101100.80
2022-10-13T12:05:24.646Z,101085.80
2022-10-13T12:10:36.360Z,101077.20
2022-10-13T12:15:44.583Z,101075.60
2022-10-13T12:20:55.581Z,101071.20
2022-10-13T12:26:00.176Z,101061.00
2022-10-13T12:31:03.731Z,101058.80
2022-10-13T12:36:35.529Z,101052.20
2022-10-13T12:41:46.209Z,101052.80
2022-10-13T12:46:58.885Z,101041.40
2022-10-13T12:52:12.166Z,101035.60
2022-10-13T12:57:35.548Z,101024.80
2022-10-13T13:02:39.302Z,101021.60
2022-10-13T13:07:52.937Z,101021.20
2022-10-13T13:12:56.758Z,101023.80
2022-10-13T13:18:39.874Z,101016.00
2022-10-13T13:23:51.187Z,101006.80
2022-10-13T13:28:57.264Z,100999.40
2022-10-13T13:34:00.383Z,100998.60
2022-10-13T13:39:03.886Z,100996.20
2022-10-13T13:44:06.891Z,100989.80
2022-10-13T13:49:12.501Z,100987.40
2022-10-13T13:54:15.559Z,100989.00
2022-10-13T13:59:18.670Z,100982.80
2022-10-13T14:04:21.674Z,100984.80
2022-10-13T14:09:24.981Z,100982.40
2022-10-13T14:14:31.979Z,100981.40
2022-10-13T14:19:35.184Z,100983.00
2022-10-13T14:24:38.413Z,100975.20
2022-10-13T14:29:41.914Z,100988.00
2022-10-13T14:34:45.017Z,100981.00
2022-10-13T14:39:48.121Z,100980.20
2022-10-13T14:44:51.228Z,100977.00
2022-10-13T14:49:54.449Z,100981.20
2022-10-13T14:54:57.549Z,100974.20
2022-10-13T15:00:02.036Z,100970.00
2022-10-13T15:05:06.721Z,100973.40
2022-10-13T15:10:10.244Z,100978.00
2022-10-13T15:15:13.271Z,100977.20
2022-10-13T15:20:16.468Z,100966.20
2022-10-13T15:25:19.464Z,100962.00
2022-10-13T15:30:22.563Z,100959.00
2022-10-13T15:35:29.251Z,100959.20
2022-10-13T15:40:36.656Z,100952.60
2022-10-13T15:45:40.483Z,100954.40
2022-10-13T15:50:44.101Z,100950.60
2022-10-13T15:55:48.955Z,100946.20
2022-10-13T16:00:52.057Z,100944.80
2022-10-13T16:05:55.149Z,100942.60
2022-10-13T16:10:58.519Z,100939.80
2022-10-13T16:16:02.123Z,100938.20
2022-10-13T16:21:18.820Z,100938.20
2022-10-13T16:26:22.492Z,100934.20
2022-10-13T16:31:25.449Z,100927.60
2022-10-13T16:36:28.424Z,100929.60
2022-10-13T16:41:31.569Z,100920.40
2022-10-13T16:46:34.831Z,100924.20
2022-10-13T16:51:38.172Z,100929.00
2022-10-13T16:56:41.280Z,100923.20
2022-10-13T17:01:45.508Z,100927.80
2022-10-13T17:06:48.656Z,100929.60
2022-10-13T17:11:51.924Z,100925.40
2022-10-13T17:16:57.745Z,100923.80
2022-10-13T17:22:01.419Z,100927.20
2022-10-13T17:27:04.522Z,100923.40
2022-10-13T17:32:08.445Z,100917.40
2022-10-13T17:37:11.554Z,100917.20
2022-10-13T17:42:14.655Z,100909.00
2022-10-13T17:47:18.021Z,100909.60
2022-10-13T17:52:21.676Z,100908.60
2022-10-13T17:57:24.795Z,100907.20
2022-10-13T18:02:27.909Z,100910.40
2022-10-13T18:07:30.836Z,100908.20
2022-10-13T18:12:33.964Z,100913.60
2022-10-13T18:17:36.974Z,100910.40
2022-10-13T18:22:39.915Z,100908.20
2022-10-13T18:27:43.441Z,100901.20
2022-10-13T18:32:46.647Z,100900.60
2022-10-13T18:37:52.324Z,100901.20
2022-10-13T18:42:55.412Z,100900.80
2022-10-13T18:47:58.621Z,100898.40
2022-10-13T18:53:01.573Z,100894.60
2022-10-13T18:58:04.665Z,100886.80
2022-10-13T19:03:08.560Z,100885.20
2022-10-13T19:08:11.596Z,100893.00
2022-10-13T19:13:14.661Z,100892.60
2022-10-13T19:18:17.779Z,100887.00
2022-10-13T19:23:22.174Z,100891.40
2022-10-13T19:28:25.869Z,100885.60
2022-10-13T19:33:28.946Z,100876.20
2022-10-13T19:38:31.965Z,100875.00
2022-10-13T19:43:35.056Z,100872.20
2022-10-13T19:48:38.095Z,100869.60
2022-10-13T19:53:42.238Z,100868.40
2022-10-13T19:58:45.183Z,100868.00
2022-10-13T20:03:48.949Z,100864.40
2022-10-13T20:08:52.207Z,100865.60
2022-10-13T20:13:55.230Z,100867.80
2022-10-13T20:19:01.002Z,100861.20
2022-10-13T20:24:04.213Z,100868.40
2022-10-13T20:29:07.866Z,100867.20
2022-10-13T20:34:11.555Z,100862.60
2022-10-13T20:39:14.837Z,100858.20
2022-10-13T20:44:17.943Z,100853.00
2022-10-13T20:49:21.126Z,100843.40
2022-10-13T20:54:24.155Z,100836.20
2022-10-13T20:59:27.626Z,100833.80
2022-10-13T21:04:30.577Z,100831.20
2022-10-13T21:09:36.502Z,100823.40
2022-10-13T21:14:39.444Z,100825.00
2022-10-13T21:19:42.899Z,100824.60
2022-10-13T21:24:45.939Z,100819.80
2022-10-13T21:29:48.902Z,100822.40
2022-10-13T21:34:53.767Z,100815.60
2022-10-13T21:39:56.665Z,100821.60
2022-10-13T21:44:59.906Z,100822.60
2022-10-13T21:50:04.853Z,100816.80
2022-10-13T21:55:08.654Z,100815.80
2022-10-13T22:00:12.864Z,100809.60
2022-10-13T22:05:15.943Z,100803.80
2022-10-13T22:10:18.949Z,100801.20
2022-10-13T22:15:21.828Z,100800.60
2022-10-13T22:20:24.949Z,100797.00
2022-10-13T22:25:27.951Z,100793.80
2022-10-13T22:30:30.920Z,100789.20
2022-10-13T22:35:35.874Z,100790.20
2022-10-13T22:40:39.276Z,100786.00
2022-10-13T22:45:51.537Z,100781.60
2022-10-13T22:50:54.562Z,100783.00
2022-10-13T22:55:57.748Z,100783.80
2022-10-13T23:01:14.641Z,100781.60
2022-10-13T23:06:22.052Z,100783.40
2022-10-13T23:11:25.046Z,100790.60
2022-10-13T23:16:28.605Z,100786.40
2022-10-13T23:21:32.067Z,100785.00
2022-10-13T23:26:35.168Z,100782.20
2022-10-13T23:31:39.066Z,100779.00
2022-10-13T23:36:42.057Z,100773.80
2022-10-13T23:41:45.029Z,100774.80
2022-10-13T23:46:47.978Z,100766.80
2022-10-13T23:51:50.866Z,100761.80
2022-10-13T23:56:53.869Z,100761.40
